sensor_id;sensor_type;location;lat;lon;timestamp;temperature;humidity
3846;DHT22;1938;50.812;7.738;2023-02-26T00:00:18;-1.20;1.00
3846;DHT22;1938;50.812;7.738;2023-02-26T00:02:45;-1.40;99.90
3846;DHT22;1938;50.812;7.738;2023-02-26T00:05:14;-1.50;1.00
3846;DHT22;1938;50.812;7.738;2023-02-26T00:07:40;-1.30;28.70
3846;DHT22;1938;50.812;7.738;2023-02-26T00:10:08;-1.10;20.30
3846;DHT22;1938;50.812;7.738;2023-02-26T00:12:34;-1.00;99.90
3846;DHT22;1938;50.812;7.738;2023-02-26T00:15:00;-1.00;1.00
3846;DHT22;1938;50.812;7.738;2023-02-26T00:17:43;-1.10;99.90
3846;DHT22;1938;50.812;7.738;2023-02-26T00:20:10;-1.10;1.00
3846;DHT22;1938;50.812;7.738;2023-02-26T00:22:40;-1.10;1.00
3846;DHT22;1938;50.812;7.738;2023-02-26T00:25:06;-1.20;1.00
3846;DHT22;1938;50.812;7.738;2023-02-26T00:27:32;-1.10;1.00
3846;DHT22;1938;50.812;7.738;2023-02-26T00:29:59;-1.10;1.00
3846;DHT22;1938;50.812;7.738;2023-02-26T00:32:25;-1.10;96.60
3846;DHT22;1938;50.812;7.738;2023-02-26T00:34:51;-0.90;99.90
3846;DHT22;1938;50.812;7.738;2023-02-26T00:37:30;-0.80;99.90
3846;DHT22;1938;50.812;7.738;2023-02-26T00:42:44;-1.00;28.40
3846;DHT22;1938;50.812;7.738;2023-02-26T00:45:11;-1.00;99.90
3846;DHT22;1938;50.812;7.738;2023-02-26T00:50:25;-1.00;99.90
3846;DHT22;1938;50.812;7.738;2023-02-26T00:55:36;-1.00;99.90
3846;DHT22;1938;50.812;7.738;2023-02-26T00:58:02;-1.10;1.00
3846;DHT22;1938;50.812;7.738;2023-02-26T01:00:27;-0.80;1.00
3846;DHT22;1938;50.812;7.738;2023-02-26T01:02:53;-0.90;99.90
3846;DHT22;1938;50.812;7.738;2023-02-26T01:05:20;-1.10;1.00
3846;DHT22;1938;50.812;7.738;2023-02-26T01:10:53;-1.40;99.90
3846;DHT22;1938;50.812;7.738;2023-02-26T01:13:20;-1.40;35.60
3846;DHT22;1938;50.812;7.738;2023-02-26T01:15:54;-1.40;1.00
3846;DHT22;1938;50.812;7.738;2023-02-26T01:18:26;-1.40;1.00
3846;DHT22;1938;50.812;7.738;2023-02-26T01:21:02;-1.40;1.00
3846;DHT22;1938;50.812;7.738;2023-02-26T01:23:32;-1.40;1.00
3846;DHT22;1938;50.812;7.738;2023-02-26T01:26:05;-1.10;99.90
3846;DHT22;1938;50.812;7.738;2023-02-26T01:28:32;-1.30;81.70
3846;DHT22;1938;50.812;7.738;2023-02-26T01:31:00;-1.40;45.70
3846;DHT22;1938;50.812;7.738;2023-02-26T01:33:38;-1.50;99.80
3846;DHT22;1938;50.812;7.738;2023-02-26T01:36:11;-1.60;99.90
3846;DHT22;1938;50.812;7.738;2023-02-26T01:39:06;-1.60;43.30
3846;DHT22;1938;50.812;7.738;2023-02-26T01:41:50;-1.60;99.90
3846;DHT22;1938;50.812;7.738;2023-02-26T01:44:31;-1.60;99.90
3846;DHT22;1938;50.812;7.738;2023-02-26T01:47:33;-1.60;99.90
3846;DHT22;1938;50.812;7.738;2023-02-26T01:49:54;-1.50;44.50
3846;DHT22;1938;50.812;7.738;2023-02-26T01:55:21;-1.60;1.00
3846;DHT22;1938;50.812;7.738;2023-02-26T01:57:49;-1.70;1.00
3846;DHT22;1938;50.812;7.738;2023-02-26T02:00:16;-1.70;1.00
3846;DHT22;1938;50.812;7.738;2023-02-26T02:02:42;-1.70;1.00
3846;DHT22;1938;50.812;7.738;2023-02-26T02:05:17;-1.70;1.00
3846;DHT22;1938;50.812;7.738;2023-02-26T02:07:45;-1.80;1.00
3846;DHT22;1938;50.812;7.738;2023-02-26T02:10:11;-1.80;1.00
3846;DHT22;1938;50.812;7.738;2023-02-26T02:15:44;-1.50;1.00
3846;DHT22;1938;50.812;7.738;2023-02-26T02:18:19;-1.60;1.00
3846;DHT22;1938;50.812;7.738;2023-02-26T02:26:41;-1.90;99.90
3846;DHT22;1938;50.812;7.738;2023-02-26T02:32:27;-1.90;1.00
3846;DHT22;1938;50.812;7.738;2023-02-26T02:35:03;-2.00;1.00
3846;DHT22;1938;50.812;7.738;2023-02-26T02:37:55;-1.90;99.90
3846;DHT22;1938;50.812;7.738;2023-02-26T02:40:29;-1.80;1.00
3846;DHT22;1938;50.812;7.738;2023-02-26T02:43:17;-1.90;1.00
3846;DHT22;1938;50.812;7.738;2023-02-26T02:46:08;-2.00;99.90
3846;DHT22;1938;50.812;7.738;2023-02-26T02:48:39;-2.10;99.90
3846;DHT22;1938;50.812;7.738;2023-02-26T02:51:14;-2.10;99.90
3846;DHT22;1938;50.812;7.738;2023-02-26T02:53:51;-2.20;99.90
3846;DHT22;1938;50.812;7.738;2023-02-26T02:56:28;-2.20;1.00
3846;DHT22;1938;50.812;7.738;2023-02-26T03:01:39;-2.20;1.00
3846;DHT22;1938;50.812;7.738;2023-02-26T03:04:10;-2.30;1.00
3846;DHT22;1938;50.812;7.738;2023-02-26T03:06:38;-2.30;1.00
3846;DHT22;1938;50.812;7.738;2023-02-26T03:09:06;-2.40;1.00
3846;DHT22;1938;50.812;7.738;2023-02-26T03:11:32;-2.40;1.00
3846;DHT22;1938;50.812;7.738;2023-02-26T03:13:58;-2.40;1.00
3846;DHT22;1938;50.812;7.738;2023-02-26T03:19:43;-2.50;21.30
3846;DHT22;1938;50.812;7.738;2023-02-26T03:25:25;-2.50;99.90
3846;DHT22;1938;50.812;7.738;2023-02-26T03:28:12;-2.60;99.90
3846;DHT22;1938;50.812;7.738;2023-02-26T03:36:12;-2.50;99.90
3846;DHT22;1938;50.812;7.738;2023-02-26T03:38:58;-2.50;99.90
3846;DHT22;1938;50.812;7.738;2023-02-26T03:41:43;-2.40;99.90
3846;DHT22;1938;50.812;7.738;2023-02-26T03:44:22;-2.40;99.90
3846;DHT22;1938;50.812;7.738;2023-02-26T03:46:56;-2.40;99.90
3846;DHT22;1938;50.812;7.738;2023-02-26T03:49:33;-2.40;99.90
3846;DHT22;1938;50.812;7.738;2023-02-26T03:52:01;-2.30;99.90
3846;DHT22;1938;50.812;7.738;2023-02-26T03:54:34;-2.30;95.40
3846;DHT22;1938;50.812;7.738;2023-02-26T03:57:02;-2.20;99.90
3846;DHT22;1938;50.812;7.738;2023-02-26T03:59:28;-1.80;1.00
3846;DHT22;1938;50.812;7.738;2023-02-26T04:02:01;-2.00;35.20
3846;DHT22;1938;50.812;7.738;2023-02-26T04:04:34;-2.10;1.20
3846;DHT22;1938;50.812;7.738;2023-02-26T04:07:09;-2.10;1.00
3846;DHT22;1938;50.812;7.738;2023-02-26T04:09:43;-2.20;1.00
3846;DHT22;1938;50.812;7.738;2023-02-26T04:12:09;-2.30;99.90
3846;DHT22;1938;50.812;7.738;2023-02-26T04:14:35;-2.30;97.10
3846;DHT22;1938;50.812;7.738;2023-02-26T04:17:02;-2.30;99.90
3846;DHT22;1938;50.812;7.738;2023-02-26T04:19:28;-2.30;99.90
3846;DHT22;1938;50.812;7.738;2023-02-26T04:21:53;-2.30;18.70
3846;DHT22;1938;50.812;7.738;2023-02-26T04:24:21;-1.90;53.80
3846;DHT22;1938;50.812;7.738;2023-02-26T04:26:46;-2.10;34.20
3846;DHT22;1938;50.812;7.738;2023-02-26T04:29:12;-2.10;87.10
3846;DHT22;1938;50.812;7.738;2023-02-26T04:31:37;-2.20;19.60
3846;DHT22;1938;50.812;7.738;2023-02-26T04:34:04;-2.20;34.20
3846;DHT22;1938;50.812;7.738;2023-02-26T04:36:30;-2.20;14.60
3846;DHT22;1938;50.812;7.738;2023-02-26T04:38:55;-2.20;1.00
3846;DHT22;1938;50.812;7.738;2023-02-26T04:41:21;-2.20;1.00
3846;DHT22;1938;50.812;7.738;2023-02-26T04:43:47;-2.20;16.90
3846;DHT22;1938;50.812;7.738;2023-02-26T04:46:13;-2.10;99.90
3846;DHT22;1938;50.812;7.738;2023-02-26T04:48:39;-1.90;1.00
3846;DHT22;1938;50.812;7.738;2023-02-26T04:51:05;-2.00;1.00
3846;DHT22;1938;50.812;7.738;2023-02-26T04:53:30;-2.00;29.70
3846;DHT22;1938;50.812;7.738;2023-02-26T04:55:56;-2.00;8.20
3846;DHT22;1938;50.812;7.738;2023-02-26T04:58:22;-2.00;20.20
3846;DHT22;1938;50.812;7.738;2023-02-26T05:00:49;-2.00;1.00
3846;DHT22;1938;50.812;7.738;2023-02-26T05:03:15;-2.00;26.10
3846;DHT22;1938;50.812;7.738;2023-02-26T05:05:42;-2.20;59.60
3846;DHT22;1938;50.812;7.738;2023-02-26T05:08:08;-2.20;99.90
3846;DHT22;1938;50.812;7.738;2023-02-26T05:10:33;-2.20;99.90
3846;DHT22;1938;50.812;7.738;2023-02-26T05:12:59;-1.80;99.90
3846;DHT22;1938;50.812;7.738;2023-02-26T05:15:24;-1.90;37.50
3846;DHT22;1938;50.812;7.738;2023-02-26T05:17:50;-2.20;7.10
3846;DHT22;1938;50.812;7.738;2023-02-26T05:20:17;-2.30;97.50
3846;DHT22;1938;50.812;7.738;2023-02-26T05:22:42;-2.40;99.90
3846;DHT22;1938;50.812;7.738;2023-02-26T05:25:09;-2.40;99.90
3846;DHT22;1938;50.812;7.738;2023-02-26T05:27:36;-2.50;99.90
3846;DHT22;1938;50.812;7.738;2023-02-26T05:30:03;-2.50;99.90
3846;DHT22;1938;50.812;7.738;2023-02-26T05:32:29;-2.50;99.90
3846;DHT22;1938;50.812;7.738;2023-02-26T05:34:55;-2.40;99.90
3846;DHT22;1938;50.812;7.738;2023-02-26T05:37:20;-2.10;1.00
3846;DHT22;1938;50.812;7.738;2023-02-26T05:39:46;-2.30;30.60
3846;DHT22;1938;50.812;7.738;2023-02-26T05:42:11;-2.40;97.30
3846;DHT22;1938;50.812;7.738;2023-02-26T05:44:37;-2.40;99.90
3846;DHT22;1938;50.812;7.738;2023-02-26T05:47:03;-2.50;99.90
3846;DHT22;1938;50.812;7.738;2023-02-26T05:49:29;-2.50;99.90
3846;DHT22;1938;50.812;7.738;2023-02-26T05:51:55;-2.50;99.90
3846;DHT22;1938;50.812;7.738;2023-02-26T05:54:20;-2.50;99.90
3846;DHT22;1938;50.812;7.738;2023-02-26T05:56:46;-2.50;99.90
3846;DHT22;1938;50.812;7.738;2023-02-26T05:59:11;-2.40;1.00
3846;DHT22;1938;50.812;7.738;2023-02-26T06:01:38;-2.20;1.00
3846;DHT22;1938;50.812;7.738;2023-02-26T06:04:05;-2.30;99.90
3846;DHT22;1938;50.812;7.738;2023-02-26T06:06:30;-2.40;99.90
3846;DHT22;1938;50.812;7.738;2023-02-26T06:08:56;-2.50;99.90
3846;DHT22;1938;50.812;7.738;2023-02-26T06:11:23;-2.60;1.00
3846;DHT22;1938;50.812;7.738;2023-02-26T06:13:48;-2.60;99.90
3846;DHT22;1938;50.812;7.738;2023-02-26T06:16:14;-2.70;1.00
3846;DHT22;1938;50.812;7.738;2023-02-26T06:18:40;-2.70;1.00
3846;DHT22;1938;50.812;7.738;2023-02-26T06:21:05;-2.70;1.00
3846;DHT22;1938;50.812;7.738;2023-02-26T06:23:31;-2.70;1.00
3846;DHT22;1938;50.812;7.738;2023-02-26T06:25:56;-2.80;1.00
3846;DHT22;1938;50.812;7.738;2023-02-26T06:28:25;-2.70;1.00
3846;DHT22;1938;50.812;7.738;2023-02-26T06:30:52;-2.60;1.00
3846;DHT22;1938;50.812;7.738;2023-02-26T06:33:19;-2.70;1.00
3846;DHT22;1938;50.812;7.738;2023-02-26T06:35:45;-2.60;1.00
3846;DHT22;1938;50.812;7.738;2023-02-26T06:38:11;-2.60;1.00
3846;DHT22;1938;50.812;7.738;2023-02-26T06:40:37;-2.60;15.70
3846;DHT22;1938;50.812;7.738;2023-02-26T06:43:02;-2.60;76.80
3846;DHT22;1938;50.812;7.738;2023-02-26T06:45:28;-2.50;99.90
3846;DHT22;1938;50.812;7.738;2023-02-26T06:47:54;-2.50;99.90
3846;DHT22;1938;50.812;7.738;2023-02-26T06:50:20;-2.30;99.90
3846;DHT22;1938;50.812;7.738;2023-02-26T06:52:46;-2.30;99.90
3846;DHT22;1938;50.812;7.738;2023-02-26T06:55:12;-2.30;1.00
3846;DHT22;1938;50.812;7.738;2023-02-26T06:57:38;-2.30;99.90
3846;DHT22;1938;50.812;7.738;2023-02-26T07:00:05;-2.20;99.90
3846;DHT22;1938;50.812;7.738;2023-02-26T07:02:31;-2.10;99.90
3846;DHT22;1938;50.812;7.738;2023-02-26T07:04:58;-1.90;1.00
3846;DHT22;1938;50.812;7.738;2023-02-26T07:07:23;-1.90;99.90
3846;DHT22;1938;50.812;7.738;2023-02-26T07:09:49;-1.70;99.90
3846;DHT22;1938;50.812;7.738;2023-02-26T07:12:14;-1.60;55.60
3846;DHT22;1938;50.812;7.738;2023-02-26T07:14:40;-1.50;18.40
3846;DHT22;1938;50.812;7.738;2023-02-26T07:17:07;-1.50;2.50
3846;DHT22;1938;50.812;7.738;2023-02-26T07:19:33;-1.40;6.10
3846;DHT22;1938;50.812;7.738;2023-02-26T07:21:59;-1.30;1.00
3846;DHT22;1938;50.812;7.738;2023-02-26T07:24:24;-1.20;1.00
3846;DHT22;1938;50.812;7.738;2023-02-26T07:26:50;-1.10;1.00
3846;DHT22;1938;50.812;7.738;2023-02-26T07:29:16;-1.10;99.90
3846;DHT22;1938;50.812;7.738;2023-02-26T07:31:42;-1.10;99.90
3846;DHT22;1938;50.812;7.738;2023-02-26T07:34:08;-1.10;99.90
3846;DHT22;1938;50.812;7.738;2023-02-26T07:36:34;-1.10;99.90
3846;DHT22;1938;50.812;7.738;2023-02-26T07:39:00;-1.00;99.90
3846;DHT22;1938;50.812;7.738;2023-02-26T07:41:25;-0.90;99.90
3846;DHT22;1938;50.812;7.738;2023-02-26T07:43:51;-0.80;99.90
3846;DHT22;1938;50.812;7.738;2023-02-26T07:46:16;-0.80;99.90
3846;DHT22;1938;50.812;7.738;2023-02-26T07:48:42;-0.80;99.90
3846;DHT22;1938;50.812;7.738;2023-02-26T07:51:08;-0.80;85.70
3846;DHT22;1938;50.812;7.738;2023-02-26T07:53:35;-0.70;99.90
3846;DHT22;1938;50.812;7.738;2023-02-26T07:56:01;-0.60;90.10
3846;DHT22;1938;50.812;7.738;2023-02-26T07:58:27;-0.50;99.90
3846;DHT22;1938;50.812;7.738;2023-02-26T08:00:53;-0.50;20.40
3846;DHT22;1938;50.812;7.738;2023-02-26T08:03:20;-0.30;30.00
3846;DHT22;1938;50.812;7.738;2023-02-26T08:05:45;-0.10;1.00
3846;DHT22;1938;50.812;7.738;2023-02-26T08:08:11;0.00;1.00
3846;DHT22;1938;50.812;7.738;2023-02-26T08:10:37;0.00;1.00
3846;DHT22;1938;50.812;7.738;2023-02-26T08:13:03;0.00;1.00
3846;DHT22;1938;50.812;7.738;2023-02-26T08:15:29;-0.30;1.00
3846;DHT22;1938;50.812;7.738;2023-02-26T08:17:54;-0.40;1.00
3846;DHT22;1938;50.812;7.738;2023-02-26T08:20:21;-0.50;1.00
3846;DHT22;1938;50.812;7.738;2023-02-26T08:22:47;-0.50;1.00
3846;DHT22;1938;50.812;7.738;2023-02-26T08:25:12;-0.40;1.00
3846;DHT22;1938;50.812;7.738;2023-02-26T08:27:38;-0.40;1.00
3846;DHT22;1938;50.812;7.738;2023-02-26T08:30:04;-0.50;1.00
3846;DHT22;1938;50.812;7.738;2023-02-26T08:32:32;-0.10;99.90
3846;DHT22;1938;50.812;7.738;2023-02-26T08:34:57;1.20;1.00
3846;DHT22;1938;50.812;7.738;2023-02-26T08:37:23;1.80;99.90
3846;DHT22;1938;50.812;7.738;2023-02-26T08:39:50;1.70;99.90
3846;DHT22;1938;50.812;7.738;2023-02-26T08:42:16;1.90;99.90
3846;DHT22;1938;50.812;7.738;2023-02-26T08:44:42;2.30;99.90
3846;DHT22;1938;50.812;7.738;2023-02-26T08:47:08;2.20;99.90
3846;DHT22;1938;50.812;7.738;2023-02-26T08:49:34;2.10;99.90
3846;DHT22;1938;50.812;7.738;2023-02-26T08:51:59;2.10;99.90
3846;DHT22;1938;50.812;7.738;2023-02-26T08:54:25;2.20;99.90
3846;DHT22;1938;50.812;7.738;2023-02-26T08:56:52;3.00;1.00
3846;DHT22;1938;50.812;7.738;2023-02-26T08:59:20;3.00;99.90
3846;DHT22;1938;50.812;7.738;2023-02-26T09:01:46;2.20;99.90
3846;DHT22;1938;50.812;7.738;2023-02-26T09:04:11;2.20;99.90
3846;DHT22;1938;50.812;7.738;2023-02-26T09:06:37;1.70;99.90
3846;DHT22;1938;50.812;7.738;2023-02-26T09:09:03;1.30;99.90
3846;DHT22;1938;50.812;7.738;2023-02-26T09:11:29;0.60;99.90
3846;DHT22;1938;50.812;7.738;2023-02-26T09:13:57;0.40;99.90
3846;DHT22;1938;50.812;7.738;2023-02-26T09:16:24;0.50;1.00
3846;DHT22;1938;50.812;7.738;2023-02-26T09:18:49;0.70;1.00
3846;DHT22;1938;50.812;7.738;2023-02-26T09:21:15;1.30;3.80
3846;DHT22;1938;50.812;7.738;2023-02-26T09:23:42;1.30;99.90
3846;DHT22;1938;50.812;7.738;2023-02-26T09:26:07;1.00;99.90
3846;DHT22;1938;50.812;7.738;2023-02-26T09:28:34;0.80;99.90
3846;DHT22;1938;50.812;7.738;2023-02-26T09:31:00;0.60;99.90
3846;DHT22;1938;50.812;7.738;2023-02-26T09:33:26;0.40;99.90
3846;DHT22;1938;50.812;7.738;2023-02-26T09:35:52;0.30;1.00
3846;DHT22;1938;50.812;7.738;2023-02-26T09:38:18;0.20;1.00
3846;DHT22;1938;50.812;7.738;2023-02-26T09:41:02;0.10;99.90
3846;DHT22;1938;50.812;7.738;2023-02-26T09:43:48;0.00;1.00
3846;DHT22;1938;50.812;7.738;2023-02-26T09:49:14;0.40;99.90
3846;DHT22;1938;50.812;7.738;2023-02-26T09:51:42;0.40;1.00
3846;DHT22;1938;50.812;7.738;2023-02-26T09:54:17;0.30;99.90
3846;DHT22;1938;50.812;7.738;2023-02-26T09:56:44;0.30;1.00
3846;DHT22;1938;50.812;7.738;2023-02-26T09:59:11;0.30;1.00
3846;DHT22;1938;50.812;7.738;2023-02-26T10:01:45;0.40;99.90
3846;DHT22;1938;50.812;7.738;2023-02-26T10:12:45;1.20;99.90
3846;DHT22;1938;50.812;7.738;2023-02-26T10:18:11;1.40;99.90
3846;DHT22;1938;50.812;7.738;2023-02-26T10:20:55;1.70;99.90
3846;DHT22;1938;50.812;7.738;2023-02-26T10:29:19;2.40;99.90
3846;DHT22;1938;50.812;7.738;2023-02-26T10:34:33;2.40;99.90
3846;DHT22;1938;50.812;7.738;2023-02-26T10:37:21;2.40;99.90
3846;DHT22;1938;50.812;7.738;2023-02-26T10:40:07;1.80;99.90
3846;DHT22;1938;50.812;7.738;2023-02-26T10:42:44;1.80;99.90
3846;DHT22;1938;50.812;7.738;2023-02-26T10:50:24;1.60;99.90
3846;DHT22;1938;50.812;7.738;2023-02-26T10:52:53;1.80;99.90
3846;DHT22;1938;50.812;7.738;2023-02-26T10:55:28;1.90;99.90
3846;DHT22;1938;50.812;7.738;2023-02-26T11:00:28;1.90;99.90
3846;DHT22;1938;50.812;7.738;2023-02-26T11:02:54;1.90;99.90
3846;DHT22;1938;50.812;7.738;2023-02-26T11:05:25;1.80;99.90
3846;DHT22;1938;50.812;7.738;2023-02-26T11:07:54;1.70;99.90
3846;DHT22;1938;50.812;7.738;2023-02-26T11:10:24;1.70;99.90
3846;DHT22;1938;50.812;7.738;2023-02-26T11:12:50;1.90;99.90
3846;DHT22;1938;50.812;7.738;2023-02-26T11:15:20;1.80;99.90
3846;DHT22;1938;50.812;7.738;2023-02-26T11:17:53;1.90;99.90
3846;DHT22;1938;50.812;7.738;2023-02-26T11:22:58;1.60;99.90
3846;DHT22;1938;50.812;7.738;2023-02-26T11:25:28;1.80;99.90
3846;DHT22;1938;50.812;7.738;2023-02-26T11:28:05;1.80;99.90
3846;DHT22;1938;50.812;7.738;2023-02-26T11:30:35;1.70;99.90
3846;DHT22;1938;50.812;7.738;2023-02-26T11:33:23;1.60;99.90
3846;DHT22;1938;50.812;7.738;2023-02-26T11:35:51;1.60;99.90
3846;DHT22;1938;50.812;7.738;2023-02-26T11:38:22;1.50;99.90
3846;DHT22;1938;50.812;7.738;2023-02-26T11:40:54;1.50;99.90
3846;DHT22;1938;50.812;7.738;2023-02-26T11:43:21;1.50;99.90
3846;DHT22;1938;50.812;7.738;2023-02-26T11:45:55;1.40;99.90
3846;DHT22;1938;50.812;7.738;2023-02-26T11:48:25;1.40;99.90
3846;DHT22;1938;50.812;7.738;2023-02-26T11:50:56;1.40;99.90
3846;DHT22;1938;50.812;7.738;2023-02-26T11:53:31;1.40;99.90
3846;DHT22;1938;50.812;7.738;2023-02-26T11:56:01;1.30;99.90
3846;DHT22;1938;50.812;7.738;2023-02-26T11:58:31;1.10;99.90
3846;DHT22;1938;50.812;7.738;2023-02-26T12:01:01;1.20;99.90
3846;DHT22;1938;50.812;7.738;2023-02-26T12:03:31;1.70;99.90
3846;DHT22;1938;50.812;7.738;2023-02-26T12:05:58;1.20;99.90
3846;DHT22;1938;50.812;7.738;2023-02-26T12:08:37;1.10;99.90
3846;DHT22;1938;50.812;7.738;2023-02-26T12:16:59;1.30;99.90
3846;DHT22;1938;50.812;7.738;2023-02-26T12:25:02;1.10;99.90
3846;DHT22;1938;50.812;7.738;2023-02-26T12:27:58;1.40;99.90
3846;DHT22;1938;50.812;7.738;2023-02-26T12:30:51;1.10;99.90
3846;DHT22;1938;50.812;7.738;2023-02-26T12:43:55;0.60;94.70
3846;DHT22;1938;50.812;7.738;2023-02-26T12:46:38;0.60;94.60
3846;DHT22;1938;50.812;7.738;2023-02-26T12:52:39;0.90;99.90
3846;DHT22;1938;50.812;7.738;2023-02-26T13:06:44;1.30;99.90
3846;DHT22;1938;50.812;7.738;2023-02-26T13:09:57;1.30;99.20
3846;DHT22;1938;50.812;7.738;2023-02-26T13:15:19;1.40;94.90
3846;DHT22;1938;50.812;7.738;2023-02-26T13:20:58;1.80;99.90
3846;DHT22;1938;50.812;7.738;2023-02-26T13:23:49;2.10;99.90
3846;DHT22;1938;50.812;7.738;2023-02-26T13:26:16;2.20;98.20
3846;DHT22;1938;50.812;7.738;2023-02-26T13:28:47;2.20;97.50
3846;DHT22;1938;50.812;7.738;2023-02-26T13:31:31;2.00;94.30
3846;DHT22;1938;50.812;7.738;2023-02-26T13:34:01;2.00;94.00
3846;DHT22;1938;50.812;7.738;2023-02-26T13:36:29;2.00;93.90
3846;DHT22;1938;50.812;7.738;2023-02-26T13:44:51;2.00;93.00
3846;DHT22;1938;50.812;7.738;2023-02-26T13:52:34;2.10;90.20
3846;DHT22;1938;50.812;7.738;2023-02-26T13:55:03;2.20;93.00
3846;DHT22;1938;50.812;7.738;2023-02-26T14:00:22;2.00;91.90
3846;DHT22;1938;50.812;7.738;2023-02-26T14:02:52;2.20;92.90
3846;DHT22;1938;50.812;7.738;2023-02-26T14:10:25;2.10;91.50
3846;DHT22;1938;50.812;7.738;2023-02-26T14:15:42;2.60;99.90
3846;DHT22;1938;50.812;7.738;2023-02-26T14:26:34;2.00;92.00
3846;DHT22;1938;50.812;7.738;2023-02-26T14:34:23;2.00;87.00
3846;DHT22;1938;50.812;7.738;2023-02-26T14:36:54;2.20;84.50
3846;DHT22;1938;50.812;7.738;2023-02-26T14:41:46;2.20;73.00
3846;DHT22;1938;50.812;7.738;2023-02-26T14:44:18;1.90;64.20
3846;DHT22;1938;50.812;7.738;2023-02-26T14:46:47;1.80;61.40
3846;DHT22;1938;50.812;7.738;2023-02-26T14:49:35;1.90;63.90
3846;DHT22;1938;50.812;7.738;2023-02-26T14:52:23;2.00;66.20
3846;DHT22;1938;50.812;7.738;2023-02-26T15:00:48;2.10;62.90
3846;DHT22;1938;50.812;7.738;2023-02-26T15:06:22;2.50;72.10
3846;DHT22;1938;50.812;7.738;2023-02-26T15:14:20;2.00;59.50
3846;DHT22;1938;50.812;7.738;2023-02-26T15:25:08;2.00;54.30
3846;DHT22;1938;50.812;7.738;2023-02-26T15:27:38;2.30;57.10
3846;DHT22;1938;50.812;7.738;2023-02-26T15:30:04;2.10;53.00
3846;DHT22;1938;50.812;7.738;2023-02-26T15:32:35;2.20;54.70
3846;DHT22;1938;50.812;7.738;2023-02-26T15:35:22;2.20;52.60
3846;DHT22;1938;50.812;7.738;2023-02-26T15:37:53;2.00;49.80
3846;DHT22;1938;50.812;7.738;2023-02-26T15:40:19;2.10;50.70
3846;DHT22;1938;50.812;7.738;2023-02-26T15:42:48;2.00;47.90
3846;DHT22;1938;50.812;7.738;2023-02-26T15:45:25;2.10;50.30
3846;DHT22;1938;50.812;7.738;2023-02-26T15:47:55;2.20;54.20
3846;DHT22;1938;50.812;7.738;2023-02-26T15:50:26;2.10;48.40
3846;DHT22;1938;50.812;7.738;2023-02-26T15:53:00;1.80;43.30
3846;DHT22;1938;50.812;7.738;2023-02-26T15:55:34;1.70;38.60
3846;DHT22;1938;50.812;7.738;2023-02-26T15:58:00;1.60;35.60
3846;DHT22;1938;50.812;7.738;2023-02-26T16:00:31;1.50;35.10
3846;DHT22;1938;50.812;7.738;2023-02-26T16:02:57;1.50;40.90
3846;DHT22;1938;50.812;7.738;2023-02-26T16:05:24;1.60;36.70
3846;DHT22;1938;50.812;7.738;2023-02-26T16:07:51;1.60;34.90
3846;DHT22;1938;50.812;7.738;2023-02-26T16:10:33;1.50;33.80
3846;DHT22;1938;50.812;7.738;2023-02-26T16:13:03;1.40;31.40
3846;DHT22;1938;50.812;7.738;2023-02-26T16:15:32;1.40;31.10
3846;DHT22;1938;50.812;7.738;2023-02-26T16:18:00;1.40;33.10
3846;DHT22;1938;50.812;7.738;2023-02-26T16:20:28;1.40;31.60
3846;DHT22;1938;50.812;7.738;2023-02-26T16:22:59;1.30;30.50
3846;DHT22;1938;50.812;7.738;2023-02-26T16:25:40;1.40;31.00
3846;DHT22;1938;50.812;7.738;2023-02-26T16:28:23;1.50;32.80
3846;DHT22;1938;50.812;7.738;2023-02-26T16:30:52;1.60;30.00
3846;DHT22;1938;50.812;7.738;2023-02-26T16:33:23;1.60;29.30
3846;DHT22;1938;50.812;7.738;2023-02-26T16:38:41;1.40;26.10
3846;DHT22;1938;50.812;7.738;2023-02-26T16:41:09;1.40;26.40
3846;DHT22;1938;50.812;7.738;2023-02-26T16:46:22;1.30;24.80
3846;DHT22;1938;50.812;7.738;2023-02-26T16:48:59;1.30;22.90
3846;DHT22;1938;50.812;7.738;2023-02-26T16:51:29;1.20;22.30
3846;DHT22;1938;50.812;7.738;2023-02-26T16:53:58;1.10;21.60
3846;DHT22;1938;50.812;7.738;2023-02-26T16:56:34;1.10;20.10
3846;DHT22;1938;50.812;7.738;2023-02-26T16:59:14;1.00;18.90
3846;DHT22;1938;50.812;7.738;2023-02-26T17:01:59;0.90;16.50
3846;DHT22;1938;50.812;7.738;2023-02-26T17:04:33;0.80;14.50
3846;DHT22;1938;50.812;7.738;2023-02-26T17:07:00;0.70;13.60
3846;DHT22;1938;50.812;7.738;2023-02-26T17:12:13;0.60;12.70
3846;DHT22;1938;50.812;7.738;2023-02-26T17:14:42;0.50;13.00
3846;DHT22;1938;50.812;7.738;2023-02-26T17:17:08;0.50;13.80
3846;DHT22;1938;50.812;7.738;2023-02-26T17:19:34;0.50;13.40
3846;DHT22;1938;50.812;7.738;2023-02-26T17:22:00;0.40;14.40
3846;DHT22;1938;50.812;7.738;2023-02-26T17:24:31;0.40;14.40
3846;DHT22;1938;50.812;7.738;2023-02-26T17:26:57;0.40;15.40
3846;DHT22;1938;50.812;7.738;2023-02-26T17:29:37;0.30;16.10
3846;DHT22;1938;50.812;7.738;2023-02-26T17:32:11;0.20;15.80
3846;DHT22;1938;50.812;7.738;2023-02-26T17:34:37;0.20;16.50
3846;DHT22;1938;50.812;7.738;2023-02-26T17:37:03;0.20;18.10
3846;DHT22;1938;50.812;7.738;2023-02-26T17:39:32;0.10;18.00
3846;DHT22;1938;50.812;7.738;2023-02-26T17:41:58;0.10;17.50
3846;DHT22;1938;50.812;7.738;2023-02-26T17:44:23;0.10;19.60
3846;DHT22;1938;50.812;7.738;2023-02-26T17:46:49;0.10;20.80
3846;DHT22;1938;50.812;7.738;2023-02-26T17:49:14;0.00;22.30
3846;DHT22;1938;50.812;7.738;2023-02-26T17:51:41;0.00;23.80
3846;DHT22;1938;50.812;7.738;2023-02-26T17:54:07;0.00;23.30
3846;DHT22;1938;50.812;7.738;2023-02-26T17:56:34;0.10;37.80
3846;DHT22;1938;50.812;7.738;2023-02-26T17:59:00;-0.10;32.20
3846;DHT22;1938;50.812;7.738;2023-02-26T18:01:26;-0.30;39.00
3846;DHT22;1938;50.812;7.738;2023-02-26T18:03:55;-0.30;49.70
3846;DHT22;1938;50.812;7.738;2023-02-26T18:06:22;-0.40;50.40
3846;DHT22;1938;50.812;7.738;2023-02-26T18:08:48;-0.40;55.20
3846;DHT22;1938;50.812;7.738;2023-02-26T18:11:15;-0.40;75.30
3846;DHT22;1938;50.812;7.738;2023-02-26T18:13:41;-0.40;84.40
3846;DHT22;1938;50.812;7.738;2023-02-26T18:16:29;-0.50;82.30
3846;DHT22;1938;50.812;7.738;2023-02-26T18:18:57;-0.30;68.70
3846;DHT22;1938;50.812;7.738;2023-02-26T18:21:24;-0.40;58.40
3846;DHT22;1938;50.812;7.738;2023-02-26T18:23:53;-0.40;71.90
3846;DHT22;1938;50.812;7.738;2023-02-26T18:26:23;-0.50;75.00
3846;DHT22;1938;50.812;7.738;2023-02-26T18:28:52;-0.50;76.70
3846;DHT22;1938;50.812;7.738;2023-02-26T18:31:20;-0.40;86.80
3846;DHT22;1938;50.812;7.738;2023-02-26T18:33:45;-0.50;65.00
3846;DHT22;1938;50.812;7.738;2023-02-26T18:36:18;-0.40;86.00
3846;DHT22;1938;50.812;7.738;2023-02-26T18:38:45;-0.50;82.10
3846;DHT22;1938;50.812;7.738;2023-02-26T18:41:10;-0.50;99.90
3846;DHT22;1938;50.812;7.738;2023-02-26T18:43:36;-0.50;62.30
3846;DHT22;1938;50.812;7.738;2023-02-26T18:46:01;-0.70;95.60
3846;DHT22;1938;50.812;7.738;2023-02-26T18:48:27;-0.70;98.90
3846;DHT22;1938;50.812;7.738;2023-02-26T18:50:53;-0.90;99.90
3846;DHT22;1938;50.812;7.738;2023-02-26T18:53:20;-1.10;99.90
3846;DHT22;1938;50.812;7.738;2023-02-26T18:55:51;-1.10;99.90
3846;DHT22;1938;50.812;7.738;2023-02-26T18:58:18;-1.20;99.90
3846;DHT22;1938;50.812;7.738;2023-02-26T19:00:44;-1.40;99.90
3846;DHT22;1938;50.812;7.738;2023-02-26T19:03:09;-1.40;99.90
3846;DHT22;1938;50.812;7.738;2023-02-26T19:05:36;-1.30;99.90
3846;DHT22;1938;50.812;7.738;2023-02-26T19:08:02;-1.20;99.90
3846;DHT22;1938;50.812;7.738;2023-02-26T19:10:28;-1.30;99.90
3846;DHT22;1938;50.812;7.738;2023-02-26T19:12:55;-1.50;99.90
3846;DHT22;1938;50.812;7.738;2023-02-26T19:15:22;-1.60;99.90
3846;DHT22;1938;50.812;7.738;2023-02-26T19:17:49;-1.70;99.90
3846;DHT22;1938;50.812;7.738;2023-02-26T19:20:15;-1.60;99.90
3846;DHT22;1938;50.812;7.738;2023-02-26T19:22:41;-1.60;99.90
3846;DHT22;1938;50.812;7.738;2023-02-26T19:25:08;-1.60;99.90
3846;DHT22;1938;50.812;7.738;2023-02-26T19:27:35;-1.50;99.90
3846;DHT22;1938;50.812;7.738;2023-02-26T19:30:01;-1.30;99.90
3846;DHT22;1938;50.812;7.738;2023-02-26T19:32:28;-1.10;99.90